Stockland, Illinois
Current Conditions -  °F | °C
As of 12:55 PM on Friday 24 Oct 2014 (Local Time) from KDNV Reporting Station
Broken Clouds Broken Clouds  
Wind Chill: 63°   Ceiling: 3800
Heat Index: 63°   Visibility: 10mi
Dew Point: 52°   Wind: 7mph
Humidity: 68%   Direction: 270°W
Pressure: 30.04"   Gusts: NA
Location:  40.61°N, 87.59°W
Report Text: KDNV 241755Z AUTO 27006KT 10SM SCT024 BKN038 17/11 A3004 RMK AO2 T01710112 10174 20088
Loading
Personal Weather Stations






























Interactive Weather Map
Tropical Storm Tracking
New forecast layout! Learn more

10-Day Weather Forecast

Advertisements
Track Severe Weather on mobile